createdAt,value
2022-08-27T00:00:46.515Z,99884.66
2022-08-27T00:01:50.318Z,99893.99
2022-08-27T00:02:55.647Z,99892.50
2022-08-27T00:03:59.830Z,99890.89
2022-08-27T00:05:03.623Z,99891.56
2022-08-27T00:06:07.206Z,99890.33
2022-08-27T00:07:13.350Z,99896.02
2022-08-27T00:08:17.384Z,99898.86
2022-08-27T00:09:26.551Z,99890.92
2022-08-27T00:10:30.003Z,99902.67
2022-08-27T00:11:35.592Z,99895.19
2022-08-27T00:12:40.258Z,99895.03
2022-08-27T00:13:46.065Z,99895.22
2022-08-27T00:14:49.323Z,99894.77
2022-08-27T00:15:52.778Z,99895.50
2022-08-27T00:16:57.291Z,99897.83
2022-08-27T00:18:04.461Z,99890.30
2022-08-27T00:19:11.484Z,99891.34
2022-08-27T00:20:19.566Z,99900.70
2022-08-27T00:21:24.717Z,99896.25
2022-08-27T00:22:29.131Z,99893.09
2022-08-27T00:23:32.555Z,99896.64
2022-08-27T00:24:48.523Z,99891.44
2022-08-27T00:25:47.122Z,99892.70
2022-08-27T00:26:56.181Z,99886.89
2022-08-27T00:28:01.548Z,99894.37
2022-08-27T00:29:06.130Z,99885.21
2022-08-27T00:30:13.668Z,99886.44
2022-08-27T00:31:17.728Z,99884.15
2022-08-27T00:32:24.234Z,99889.34
2022-08-27T00:33:28.514Z,99884.02
2022-08-27T00:34:34.102Z,99888.56
2022-08-27T00:35:37.818Z,99893.06
2022-08-27T00:36:42.372Z,99883.63
2022-08-27T00:37:45.666Z,99885.66
2022-08-27T00:38:53.764Z,99890.28
2022-08-27T00:40:00.332Z,99882.14
2022-08-27T00:41:04.883Z,99888.47
2022-08-27T00:42:09.191Z,99887.25
2022-08-27T00:43:17.430Z,99891.86
2022-08-27T00:44:21.379Z,99885.27
2022-08-27T00:45:26.712Z,99889.25
2022-08-27T00:47:06.096Z,99879.44
2022-08-27T00:48:18.351Z,99886.59
2022-08-27T00:50:54.524Z,99881.56
2022-08-27T00:52:08.371Z,99885.89
2022-08-27T00:53:18.659Z,99886.92
2022-08-27T00:55:49.846Z,99878.95
2022-08-27T00:56:55.797Z,99881.66
2022-08-27T00:58:11.137Z,99876.50
2022-08-27T00:59:18.952Z,99881.01
2022-08-27T01:00:24.655Z,99878.56
2022-08-27T01:01:31.344Z,99875.33
2022-08-27T01:02:35.576Z,99874.71
2022-08-27T01:03:41.689Z,99876.39
2022-08-27T01:05:02.723Z,99882.65
2022-08-27T01:06:10.332Z,99883.31
2022-08-27T01:07:19.603Z,99884.68
2022-08-27T01:08:28.641Z,99890.30
2022-08-27T01:09:33.453Z,99893.69
2022-08-27T01:10:39.224Z,99883.58
2022-08-27T01:11:45.758Z,99891.63
2022-08-27T01:12:54.623Z,99892.93
2022-08-27T01:14:00.375Z,99898.03
2022-08-27T01:15:06.893Z,99896.36
2022-08-27T01:16:16.098Z,99892.62
2022-08-27T01:17:19.786Z,99901.63
2022-08-27T01:18:27.877Z,99900.41
2022-08-27T01:19:48.270Z,99900.83
2022-08-27T01:21:04.875Z,99903.53
2022-08-27T01:22:32.091Z,99898.92
2022-08-27T01:23:45.969Z,99901.31
2022-08-27T01:24:52.671Z,99899.64
2022-08-27T01:25:58.511Z,99896.73
2022-08-27T01:27:04.696Z,99896.88
2022-08-27T01:28:11.441Z,99898.14
2022-08-27T01:29:16.897Z,99901.75
2022-08-27T01:30:21.748Z,99902.53
2022-08-27T01:31:27.874Z,99898.20
2022-08-27T01:32:34.309Z,99892.22
2022-08-27T01:33:40.772Z,99897.63
2022-08-27T01:34:47.230Z,99898.66
2022-08-27T01:35:52.671Z,99897.96
2022-08-27T01:36:57.550Z,99893.76
2022-08-27T01:38:04.735Z,99901.23
2022-08-27T01:40:23.011Z,99889.45
2022-08-27T01:41:28.734Z,99891.52
2022-08-27T01:42:36.015Z,99898.06
2022-08-27T01:43:39.921Z,99889.19
2022-08-27T01:46:07.051Z,99893.06
2022-08-27T01:47:09.961Z,99891.38
2022-08-27T01:49:17.949Z,99887.18
2022-08-27T01:50:29.569Z,99889.97
2022-08-27T01:51:33.459Z,99888.80
2022-08-27T01:52:38.227Z,99892.30
2022-08-27T01:53:43.023Z,99884.88
2022-08-27T01:54:46.236Z,99892.41
2022-08-27T01:55:52.756Z,99890.97
2022-08-27T01:56:57.001Z,99887.37
2022-08-27T01:58:04.012Z,99890.92
2022-08-27T01:59:07.975Z,99884.93
2022-08-27T02:00:16.696Z,99884.36
2022-08-27T02:01:21.095Z,99888.63
2022-08-27T02:02:24.179Z,99884.66
2022-08-27T02:03:30.012Z,99885.91
2022-08-27T02:05:48.439Z,99887.58
2022-08-27T02:06:52.433Z,99883.14
2022-08-27T02:07:57.711Z,99878.75
2022-08-27T02:09:02.964Z,99887.13
2022-08-27T02:10:10.093Z,99886.47
2022-08-27T02:11:13.939Z,99885.86
2022-08-27T02:12:17.894Z,99887.59
2022-08-27T02:13:21.576Z,99882.41
2022-08-27T02:14:26.082Z,99884.60
2022-08-27T02:15:33.453Z,99885.02
2022-08-27T02:16:38.585Z,99884.22
2022-08-27T02:17:43.541Z,99877.20
2022-08-27T02:18:51.502Z,99876.47
2022-08-27T02:19:55.355Z,99879.45
2022-08-27T02:20:59.481Z,99880.29
2022-08-27T02:22:03.615Z,99880.25
2022-08-27T02:23:09.057Z,99871.84
2022-08-27T02:24:16.220Z,99884.60
2022-08-27T02:25:23.885Z,99875.63
2022-08-27T02:26:27.054Z,99876.48
2022-08-27T02:27:31.054Z,99879.66
2022-08-27T02:28:35.667Z,99882.09
2022-08-27T02:29:40.859Z,99886.53
2022-08-27T02:30:44.914Z,99879.37
2022-08-27T02:31:49.275Z,99877.13
2022-08-27T02:32:53.606Z,99880.68
2022-08-27T02:33:57.802Z,99873.77
2022-08-27T02:35:02.513Z,99878.41
2022-08-27T02:36:07.036Z,99870.23
2022-08-27T02:37:10.988Z,99871.82
2022-08-27T02:38:16.759Z,99873.26
2022-08-27T02:39:22.105Z,99872.14
2022-08-27T02:40:29.757Z,99882.59
2022-08-27T02:41:35.067Z,99871.95
2022-08-27T02:42:39.167Z,99870.55
2022-08-27T02:43:45.581Z,99875.31
2022-08-27T02:44:50.139Z,99872.85
2022-08-27T02:45:54.281Z,99869.39
2022-08-27T02:47:00.564Z,99874.06
2022-08-27T02:48:07.832Z,99861.50
2022-08-27T02:49:11.922Z,99865.15
2022-08-27T02:50:19.808Z,99877.75
2022-08-27T02:51:28.558Z,99868.59
2022-08-27T02:52:32.649Z,99861.78
2022-08-27T02:54:51.318Z,99856.60
2022-08-27T02:55:56.287Z,99865.89
2022-08-27T02:57:00.606Z,99863.47
2022-08-27T02:58:06.072Z,99859.55
2022-08-27T02:59:10.076Z,99858.52
2022-08-27T03:00:22.175Z,99866.08
2022-08-27T03:01:30.243Z,99863.05
2022-08-27T03:02:34.166Z,99863.05
2022-08-27T03:03:42.194Z,99863.13
2022-08-27T03:04:46.770Z,99857.63
2022-08-27T03:05:50.649Z,99861.13
2022-08-27T03:06:55.239Z,99865.14
2022-08-27T03:08:01.362Z,99866.41
2022-08-27T03:09:06.646Z,99856.09
2022-08-27T03:11:30.063Z,99851.97
2022-08-27T03:12:35.380Z,99855.81
2022-08-27T03:13:40.773Z,99853.20
2022-08-27T03:14:46.813Z,99858.80
2022-08-27T03:15:52.467Z,99870.84
2022-08-27T03:16:59.901Z,99870.56
2022-08-27T03:18:19.157Z,99868.92
2022-08-27T03:19:24.329Z,99862.01
2022-08-27T03:20:35.157Z,99862.01
2022-08-27T03:21:39.837Z,99869.19
2022-08-27T03:22:43.898Z,99865.46
2022-08-27T03:23:49.462Z,99865.09
2022-08-27T03:24:53.306Z,99859.77
2022-08-27T03:26:00.093Z,99865.17
2022-08-27T03:27:08.917Z,99859.14
2022-08-27T03:28:22.455Z,99861.85
2022-08-27T03:29:22.405Z,99864.80
2022-08-27T03:30:27.046Z,99865.46
2022-08-27T03:31:32.066Z,99871.71
2022-08-27T03:32:36.714Z,99864.99
2022-08-27T03:33:40.526Z,99870.22
2022-08-27T03:34:46.533Z,99864.63
2022-08-27T03:35:52.306Z,99870.81
2022-08-27T03:36:56.058Z,99867.27
2022-08-27T03:38:00.220Z,99866.48
2022-08-27T03:39:06.205Z,99863.97
2022-08-27T03:40:17.537Z,99858.67
2022-08-27T03:41:24.227Z,99863.43
2022-08-27T03:42:30.400Z,99861.55
2022-08-27T03:43:33.419Z,99859.67
2022-08-27T03:44:37.094Z,99864.80
2022-08-27T03:45:52.790Z,99862.47
2022-08-27T03:46:52.390Z,99863.25
2022-08-27T03:47:56.697Z,99861.85
2022-08-27T03:49:00.444Z,99859.52
2022-08-27T03:50:06.925Z,99862.28
2022-08-27T03:51:15.151Z,99860.52
2022-08-27T03:52:20.219Z,99865.38
2022-08-27T03:53:23.997Z,99866.95
2022-08-27T03:54:27.787Z,99865.38
2022-08-27T03:55:30.560Z,99866.11
2022-08-27T03:56:37.250Z,99858.28
2022-08-27T03:57:40.645Z,99859.48
2022-08-27T03:58:44.626Z,99855.38
2022-08-27T03:59:53.034Z,99859.67
2022-08-27T04:00:56.826Z,99860.80
2022-08-27T04:02:02.407Z,99848.35
2022-08-27T04:03:12.910Z,99851.24
2022-08-27T04:04:17.789Z,99857.97
2022-08-27T04:05:23.520Z,99850.69
2022-08-27T04:06:31.469Z,99849.47
2022-08-27T04:07:36.782Z,99848.16
2022-08-27T04:08:41.418Z,99844.16
2022-08-27T04:09:44.714Z,99841.26
2022-08-27T04:10:48.588Z,99846.95
2022-08-27T04:11:52.139Z,99838.73
2022-08-27T04:12:57.455Z,99842.00
2022-08-27T04:15:17.570Z,99850.16
2022-08-27T04:16:21.318Z,99845.72
2022-08-27T04:17:26.456Z,99844.09
2022-08-27T04:19:42.364Z,99837.45
2022-08-27T04:20:49.005Z,99830.80
2022-08-27T04:21:54.734Z,99837.80
2022-08-27T04:22:59.104Z,99847.31
2022-08-27T04:24:03.938Z,99835.45
2022-08-27T04:25:09.942Z,99829.58
2022-08-27T04:26:16.013Z,99826.59
2022-08-27T04:27:24.092Z,99837.52
2022-08-27T04:28:37.870Z,99824.45
2022-08-27T04:29:43.203Z,99822.21
2022-08-27T04:30:46.803Z,99827.90
2022-08-27T04:31:51.168Z,99817.27
2022-08-27T04:32:53.911Z,99820.91
2022-08-27T04:33:57.070Z,99814.28
2022-08-27T04:35:02.038Z,99814.74
2022-08-27T04:36:09.618Z,99816.88
2022-08-27T04:37:16.526Z,99815.12
2022-08-27T04:38:24.902Z,99815.58
2022-08-27T04:39:28.886Z,99816.61
2022-08-27T04:40:55.969Z,99815.66
2022-08-27T04:42:04.074Z,99818.09
2022-08-27T04:43:09.286Z,99819.78
2022-08-27T04:44:13.188Z,99818.00
2022-08-27T04:45:16.825Z,99811.00
2022-08-27T04:46:24.916Z,99820.16
2022-08-27T04:47:28.638Z,99827.71
2022-08-27T04:48:34.995Z,99827.90
2022-08-27T04:49:41.315Z,99832.38
2022-08-27T04:50:46.789Z,99832.04
2022-08-27T04:51:50.733Z,99829.61
2022-08-27T04:52:53.484Z,99832.13
2022-08-27T04:53:59.946Z,99832.04
2022-08-27T04:55:05.688Z,99831.66
2022-08-27T04:56:17.734Z,99833.61
2022-08-27T04:57:23.976Z,99823.13
2022-08-27T04:58:29.831Z,99829.27
2022-08-27T04:59:35.345Z,99834.69
2022-08-27T05:01:55.940Z,99834.30
2022-08-27T05:03:03.103Z,99831.41
2022-08-27T05:04:09.404Z,99833.08
2022-08-27T05:05:16.050Z,99828.88
2022-08-27T05:06:20.386Z,99829.53
2022-08-27T05:07:24.045Z,99830.02
2022-08-27T05:08:28.322Z,99838.80
2022-08-27T05:09:34.262Z,99827.70
2022-08-27T05:10:46.964Z,99833.12
2022-08-27T05:11:53.621Z,99829.25
2022-08-27T05:12:59.981Z,99828.45
2022-08-27T05:14:09.511Z,99828.80
2022-08-27T05:15:13.376Z,99828.28
2022-08-27T05:16:22.051Z,99829.38
2022-08-27T05:17:27.206Z,99831.45
2022-08-27T05:19:45.180Z,99826.70
2022-08-27T05:20:49.985Z,99821.05
2022-08-27T05:21:54.670Z,99831.53
2022-08-27T05:22:58.203Z,99828.45
2022-08-27T05:24:04.759Z,99823.48
2022-08-27T05:25:10.058Z,99819.66
2022-08-27T05:26:15.176Z,99820.44
2022-08-27T05:27:19.149Z,99818.53
2022-08-27T05:28:28.033Z,99820.63
2022-08-27T05:29:32.079Z,99822.59
2022-08-27T05:30:38.045Z,99827.23
2022-08-27T05:31:42.314Z,99814.70
2022-08-27T05:32:46.428Z,99828.73
2022-08-27T05:33:50.740Z,99820.57
2022-08-27T05:34:55.080Z,99823.88
2022-08-27T05:36:03.740Z,99829.74
2022-08-27T05:37:10.112Z,99831.03
2022-08-27T05:38:15.577Z,99825.60
2022-08-27T05:39:20.814Z,99824.14
2022-08-27T05:40:24.965Z,99832.06
2022-08-27T05:41:34.301Z,99831.44
2022-08-27T05:42:41.134Z,99826.64
2022-08-27T05:43:50.263Z,99826.13
2022-08-27T05:44:53.562Z,99816.55
2022-08-27T05:45:57.558Z,99826.75
2022-08-27T05:47:01.474Z,99825.53
2022-08-27T05:48:05.577Z,99826.25
2022-08-27T05:49:13.088Z,99824.39
2022-08-27T05:50:23.473Z,99827.92
2022-08-27T05:51:31.522Z,99821.86
2022-08-27T05:52:37.009Z,99821.66
2022-08-27T05:53:47.881Z,99820.82
2022-08-27T05:54:51.780Z,99823.48
2022-08-27T05:55:55.357Z,99813.00
2022-08-27T05:56:59.729Z,99816.05
2022-08-27T05:58:06.823Z,99830.11
2022-08-27T05:59:30.525Z,99824.06
2022-08-27T06:00:58.401Z,99821.14
2022-08-27T06:02:01.243Z,99829.99
2022-08-27T06:03:05.128Z,99819.48
2022-08-27T06:04:11.569Z,99811.52
2022-08-27T06:05:17.748Z,99811.52
2022-08-27T06:06:22.474Z,99815.52
2022-08-27T06:07:27.648Z,99808.24
2022-08-27T06:08:31.359Z,99809.59
2022-08-27T06:09:38.412Z,99809.30
2022-08-27T06:10:52.050Z,99814.56
2022-08-27T06:11:58.167Z,99809.76
2022-08-27T06:13:01.778Z,99809.84
2022-08-27T06:14:06.882Z,99807.38
2022-08-27T06:15:11.851Z,99807.77
2022-08-27T06:16:26.583Z,99805.26
2022-08-27T06:17:30.420Z,99811.98
2022-08-27T06:18:35.653Z,99814.70
2022-08-27T06:19:39.411Z,99814.77
2022-08-27T06:20:47.176Z,99810.23
2022-08-27T06:23:06.064Z,99818.08
2022-08-27T06:24:14.390Z,99817.44
2022-08-27T06:25:17.647Z,99820.59
2022-08-27T06:26:24.563Z,99821.42
2022-08-27T06:27:28.630Z,99827.70
2022-08-27T06:28:39.684Z,99818.33
2022-08-27T06:29:47.919Z,99815.22
2022-08-27T06:30:53.631Z,99819.41
2022-08-27T06:31:58.386Z,99819.20
2022-08-27T06:33:02.206Z,99820.25
2022-08-27T06:34:08.462Z,99815.27
2022-08-27T06:35:14.116Z,99812.18
2022-08-27T06:36:22.886Z,99815.73
2022-08-27T06:37:29.867Z,99813.22
2022-08-27T06:38:34.771Z,99817.84
2022-08-27T06:39:43.038Z,99819.31
2022-08-27T06:40:46.966Z,99812.00
2022-08-27T06:41:52.498Z,99809.75
2022-08-27T06:42:57.115Z,99812.64
2022-08-27T06:44:02.412Z,99815.41
2022-08-27T06:45:06.788Z,99813.75
2022-08-27T06:46:15.896Z,99806.66
2022-08-27T06:47:21.333Z,99806.66
2022-08-27T06:48:26.013Z,99806.25
2022-08-27T06:49:31.387Z,99807.91
2022-08-27T06:50:43.823Z,99810.42
2022-08-27T06:51:49.341Z,99813.36
2022-08-27T06:52:54.725Z,99819.00
2022-08-27T06:54:02.216Z,99822.53
2022-08-27T06:55:08.327Z,99820.44
2022-08-27T06:56:16.069Z,99818.58
2022-08-27T06:57:20.188Z,99825.89
2022-08-27T06:58:23.958Z,99828.63
2022-08-27T06:59:29.247Z,99824.42
2022-08-27T07:00:32.685Z,99831.53
2022-08-27T07:01:44.161Z,99828.02
2022-08-27T07:02:48.023Z,99828.62
2022-08-27T07:03:51.190Z,99832.38
2022-08-27T07:04:57.909Z,99830.48
2022-08-27T07:06:06.604Z,99827.94
2022-08-27T07:07:32.618Z,99833.17
2022-08-27T07:08:23.105Z,99831.66
2022-08-27T07:09:27.026Z,99838.98
2022-08-27T07:10:32.798Z,99826.02
2022-08-27T07:11:45.316Z,99830.20
2022-08-27T07:12:49.441Z,99824.11
2022-08-27T07:13:53.517Z,99829.70
2022-08-27T07:14:58.567Z,99827.61
2022-08-27T07:16:12.637Z,99826.70
2022-08-27T07:17:17.484Z,99814.52
2022-08-27T07:18:27.196Z,99819.92
2022-08-27T07:19:30.242Z,99819.27
2022-08-27T07:20:34.151Z,99815.44
2022-08-27T07:21:39.368Z,99818.70
2022-08-27T07:22:44.635Z,99810.41
2022-08-27T07:23:52.129Z,99808.09
2022-08-27T07:24:55.026Z,99809.54
2022-08-27T07:25:58.944Z,99808.66
2022-08-27T07:27:03.444Z,99802.59
2022-08-27T07:28:09.649Z,99801.29
2022-08-27T07:29:15.855Z,99801.03
2022-08-27T07:30:21.542Z,99809.75
2022-08-27T07:31:24.565Z,99804.59
2022-08-27T07:32:31.333Z,99805.97
2022-08-27T07:33:34.860Z,99808.72
2022-08-27T07:34:41.867Z,99804.70
2022-08-27T07:35:50.018Z,99803.48
2022-08-27T07:36:53.740Z,99801.14
2022-08-27T07:38:01.922Z,99806.70
2022-08-27T07:39:06.823Z,99805.28
2022-08-27T07:40:16.140Z,99808.69
2022-08-27T07:41:20.080Z,99811.33
2022-08-27T07:42:43.689Z,99814.59
2022-08-27T07:44:06.053Z,99802.01
2022-08-27T07:45:14.207Z,99810.58
2022-08-27T07:46:19.975Z,99822.19
2022-08-27T07:47:24.261Z,99818.45
2022-08-27T07:48:29.053Z,99824.16
2022-08-27T07:49:34.717Z,99821.84
2022-08-27T07:50:40.391Z,99815.23
2022-08-27T07:51:45.361Z,99815.23
2022-08-27T07:52:50.169Z,99818.20
2022-08-27T07:54:04.779Z,99817.02
2022-08-27T07:55:11.469Z,99817.02
2022-08-27T07:56:21.293Z,99824.00
2022-08-27T07:57:27.972Z,99828.06
2022-08-27T07:58:36.160Z,99828.03
2022-08-27T07:59:40.345Z,99835.79
2022-08-27T08:00:46.420Z,99828.54
2022-08-27T08:01:49.617Z,99834.77
2022-08-27T08:02:53.052Z,99831.02
2022-08-27T08:04:00.659Z,99831.41
2022-08-27T08:05:08.418Z,99827.46
2022-08-27T08:06:16.376Z,99820.86
2022-08-27T08:07:20.204Z,99820.38
2022-08-27T08:08:24.492Z,99829.45
2022-08-27T08:09:29.487Z,99827.19
2022-08-27T08:10:36.192Z,99825.09
2022-08-27T08:11:41.930Z,99822.12
2022-08-27T08:12:48.881Z,99819.72
2022-08-27T08:13:51.862Z,99823.55
2022-08-27T08:14:58.320Z,99821.79
2022-08-27T08:16:03.123Z,99819.45
2022-08-27T08:17:10.096Z,99828.27
2022-08-27T08:18:16.515Z,99822.48
2022-08-27T08:19:20.882Z,99833.11
2022-08-27T08:20:54.262Z,99828.64
2022-08-27T08:21:30.937Z,99823.33
2022-08-27T08:22:36.276Z,99819.91
2022-08-27T08:23:40.646Z,99820.15
2022-08-27T08:24:46.913Z,99826.22
2022-08-27T08:25:49.861Z,99817.05
2022-08-27T08:26:52.469Z,99824.76
2022-08-27T08:27:57.195Z,99822.49
2022-08-27T08:29:05.323Z,99821.25
2022-08-27T08:30:11.283Z,99822.56
2022-08-27T08:31:15.229Z,99824.76
2022-08-27T08:32:20.821Z,99818.77
2022-08-27T08:33:24.841Z,99828.27
2022-08-27T08:34:28.850Z,99824.72
2022-08-27T08:35:35.083Z,99827.14
2022-08-27T08:36:39.778Z,99819.23
2022-08-27T08:37:45.543Z,99825.06
2022-08-27T08:38:50.391Z,99815.88
2022-08-27T08:39:54.383Z,99828.45
2022-08-27T08:40:57.537Z,99824.34
2022-08-27T08:42:07.984Z,99823.67
2022-08-27T08:43:21.558Z,99812.81
2022-08-27T08:44:44.271Z,99814.95
2022-08-27T08:45:51.550Z,99816.61
2022-08-27T08:47:02.550Z,99814.09
2022-08-27T08:48:08.031Z,99815.65
2022-08-27T08:49:35.902Z,99828.90
2022-08-27T08:50:45.616Z,99824.36
2022-08-27T08:51:48.522Z,99831.14
2022-08-27T08:53:18.983Z,99841.27
2022-08-27T08:54:26.677Z,99833.55
2022-08-27T08:55:48.778Z,99837.20
2022-08-27T08:56:59.215Z,99835.83
2022-08-27T08:58:22.008Z,99841.98
2022-08-27T08:59:39.658Z,99844.50
2022-08-27T09:00:46.461Z,99845.70
2022-08-27T09:01:49.862Z,99836.05
2022-08-27T09:02:57.135Z,99833.55
2022-08-27T09:04:07.616Z,99839.33
2022-08-27T09:05:12.375Z,99843.21
2022-08-27T09:06:29.199Z,99838.78
2022-08-27T09:07:42.903Z,99841.30
2022-08-27T09:08:49.390Z,99837.91
2022-08-27T09:10:07.172Z,99832.72
2022-08-27T09:12:53.804Z,99828.09
2022-08-27T09:14:02.614Z,99823.25
2022-08-27T09:15:16.241Z,99824.72
2022-08-27T09:16:23.725Z,99822.88
2022-08-27T09:17:29.485Z,99822.06
2022-08-27T09:18:37.275Z,99826.86
2022-08-27T09:19:43.838Z,99827.38
2022-08-27T09:20:54.513Z,99831.79
2022-08-27T09:22:20.331Z,99830.86
2022-08-27T09:25:27.342Z,99835.98
2022-08-27T09:26:35.130Z,99836.94
2022-08-27T09:27:44.859Z,99829.40
2022-08-27T09:29:10.872Z,99834.19
2022-08-27T09:30:22.468Z,99823.25
2022-08-27T09:31:29.211Z,99829.83
2022-08-27T09:32:37.506Z,99833.07
2022-08-27T09:33:44.416Z,99834.68
2022-08-27T09:34:46.137Z,99834.56
2022-08-27T09:35:51.628Z,99827.74
2022-08-27T09:38:23.250Z,99825.24
2022-08-27T09:39:37.033Z,99828.86
2022-08-27T09:40:51.075Z,99834.93
2022-08-27T09:41:56.472Z,99833.23
2022-08-27T09:43:20.267Z,99835.14
2022-08-27T09:44:25.117Z,99828.58
2022-08-27T09:45:30.976Z,99825.83
2022-08-27T09:46:35.461Z,99827.48
2022-08-27T09:47:50.667Z,99821.59
2022-08-27T09:48:56.120Z,99825.42
2022-08-27T09:50:07.285Z,99828.27
2022-08-27T09:51:25.663Z,99824.70
2022-08-27T09:53:59.632Z,99816.14
2022-08-27T09:55:04.213Z,99824.41
2022-08-27T09:56:12.996Z,99821.60
2022-08-27T09:57:19.905Z,99823.31
2022-08-27T09:58:31.113Z,99824.98
2022-08-27T09:59:42.538Z,99829.94
2022-08-27T10:00:50.350Z,99824.69
2022-08-27T10:02:06.694Z,99821.33
2022-08-27T10:03:15.654Z,99820.76
2022-08-27T10:04:29.051Z,99818.03
2022-08-27T10:05:38.886Z,99824.63
2022-08-27T10:06:50.977Z,99817.73
2022-08-27T10:09:21.745Z,99839.90
2022-08-27T10:10:52.995Z,99829.22
2022-08-27T10:12:14.955Z,99828.41
2022-08-27T10:13:23.381Z,99833.26
2022-08-27T10:14:36.590Z,99831.23
2022-08-27T10:15:57.607Z,99828.31
2022-08-27T10:20:00.327Z,99832.80
2022-08-27T10:21:32.778Z,99832.27
2022-08-27T10:22:50.003Z,99830.05
2022-08-27T10:23:59.095Z,99834.02
2022-08-27T10:25:14.195Z,99835.16
2022-08-27T10:26:39.134Z,99828.77
2022-08-27T10:27:59.903Z,99828.05
2022-08-27T10:29:20.296Z,99829.53
2022-08-27T10:30:33.469Z,99825.72
2022-08-27T10:31:45.180Z,99826.20
2022-08-27T10:33:23.389Z,99834.20
2022-08-27T10:34:29.501Z,99833.91
2022-08-27T10:35:48.095Z,99832.81
2022-08-27T10:36:55.903Z,99831.13
2022-08-27T10:38:07.620Z,99828.69
2022-08-27T10:39:17.174Z,99837.30
2022-08-27T10:40:38.200Z,99829.05
2022-08-27T10:43:03.250Z,99835.59
2022-08-27T10:44:13.056Z,99831.98
2022-08-27T10:45:32.371Z,99829.58
2022-08-27T10:46:56.232Z,99835.67
2022-08-27T10:48:07.327Z,99838.71
2022-08-27T10:49:18.374Z,99836.98
2022-08-27T10:51:00.710Z,99840.43
2022-08-27T10:52:18.815Z,99842.85
2022-08-27T10:53:32.867Z,99834.68
2022-08-27T10:54:45.777Z,99838.53
2022-08-27T10:55:54.402Z,99833.85
2022-08-27T10:58:50.599Z,99838.86
2022-08-27T11:00:08.833Z,99850.66
2022-08-27T11:01:30.685Z,99846.36
2022-08-27T11:02:47.385Z,99846.06
2022-08-27T11:05:34.417Z,99845.27
2022-08-27T11:06:43.058Z,99843.45
2022-08-27T11:07:55.593Z,99847.00
2022-08-27T11:09:19.488Z,99844.34
2022-08-27T11:10:32.264Z,99848.26
2022-08-27T11:12:12.614Z,99844.61
2022-08-27T11:12:52.279Z,99846.63
2022-08-27T11:14:00.961Z,99846.17
2022-08-27T11:15:19.729Z,99849.56
2022-08-27T11:16:28.866Z,99854.61
2022-08-27T11:17:42.178Z,99853.72
2022-08-27T11:18:49.914Z,99842.18
2022-08-27T11:19:58.865Z,99847.51
2022-08-27T11:21:24.074Z,99845.50
2022-08-27T11:22:51.367Z,99854.90
2022-08-27T11:24:04.303Z,99855.70
2022-08-27T11:26:46.721Z,99843.78
2022-08-27T11:27:54.381Z,99849.22
2022-08-27T11:29:01.950Z,99855.05
2022-08-27T11:30:08.393Z,99852.27
2022-08-27T11:31:21.929Z,99849.80
2022-08-27T11:34:08.778Z,99856.18
2022-08-27T11:35:21.718Z,99854.83
2022-08-27T11:36:39.207Z,99853.98
2022-08-27T11:38:09.679Z,99853.98
2022-08-27T11:39:33.484Z,99845.98
2022-08-27T11:42:35.562Z,99845.14
2022-08-27T11:43:41.587Z,99856.20
2022-08-27T11:44:49.452Z,99849.92
2022-08-27T11:46:04.983Z,99855.58
2022-08-27T11:47:18.121Z,99843.78
2022-08-27T11:48:25.679Z,99854.84
2022-08-27T11:49:34.472Z,99850.30
2022-08-27T11:50:43.447Z,99841.57
2022-08-27T11:51:53.824Z,99843.75
2022-08-27T11:53:06.359Z,99847.29
2022-08-27T11:54:15.343Z,99852.00
2022-08-27T11:55:26.786Z,99848.41
2022-08-27T11:56:40.686Z,99843.75
2022-08-27T11:57:47.168Z,99847.02
2022-08-27T11:58:53.754Z,99835.48
2022-08-27T12:00:06.232Z,99839.34
2022-08-27T12:01:22.800Z,99843.77
2022-08-27T12:02:33.616Z,99840.45
2022-08-27T12:03:36.977Z,99838.53
2022-08-27T12:04:43.097Z,99842.92
2022-08-27T12:05:52.506Z,99836.25
2022-08-27T12:07:11.804Z,99843.41
2022-08-27T12:08:21.587Z,99847.58
2022-08-27T12:09:26.898Z,99840.89
2022-08-27T12:10:42.514Z,99837.77
2022-08-27T12:11:57.446Z,99835.05
2022-08-27T12:13:18.040Z,99833.16
2022-08-27T12:14:38.336Z,99835.10
2022-08-27T12:16:02.220Z,99837.77
2022-08-27T12:17:31.771Z,99835.18
2022-08-27T12:18:55.432Z,99837.07
2022-08-27T12:20:06.620Z,99829.53
2022-08-27T12:21:46.230Z,99829.57
2022-08-27T12:23:15.533Z,99834.92
2022-08-27T12:24:43.041Z,99815.16
2022-08-27T12:26:17.798Z,99816.77
2022-08-27T12:27:29.008Z,99821.45
2022-08-27T12:28:36.076Z,99815.36
2022-08-27T12:30:00.479Z,99810.41
2022-08-27T12:31:05.577Z,99813.75
2022-08-27T12:32:34.478Z,99815.52
2022-08-27T12:33:46.394Z,99816.72
2022-08-27T12:35:03.697Z,99820.88
2022-08-27T12:36:29.003Z,99820.61
2022-08-27T12:37:59.620Z,99818.24
2022-08-27T12:39:05.213Z,99817.87
2022-08-27T12:40:28.499Z,99817.77
2022-08-27T12:41:44.044Z,99809.19
2022-08-27T12:42:44.844Z,99814.17
2022-08-27T12:43:49.023Z,99810.06
2022-08-27T12:44:59.426Z,99814.57
2022-08-27T12:46:08.046Z,99811.11
2022-08-27T13:12:05.405Z,99800.88
2022-08-27T13:13:15.882Z,99797.15
2022-08-27T13:14:21.901Z,99794.91
2022-08-27T13:15:27.462Z,99788.47
2022-08-27T13:16:32.876Z,99784.80
2022-08-27T13:17:40.979Z,99782.70
2022-08-27T13:18:51.497Z,99787.18
2022-08-27T13:20:01.605Z,99781.95
2022-08-27T13:22:40.932Z,99786.63
2022-08-27T13:23:47.741Z,99776.27
2022-08-27T13:24:54.577Z,99787.11
2022-08-27T13:26:09.574Z,99787.42
2022-08-27T13:27:15.763Z,99784.29
2022-08-27T13:28:23.068Z,99785.26
2022-08-27T13:29:29.447Z,99778.75
2022-08-27T13:30:36.017Z,99783.34
2022-08-27T13:31:41.036Z,99781.14
2022-08-27T13:32:46.288Z,99775.44
2022-08-27T13:33:51.104Z,99778.14
2022-08-27T13:34:57.445Z,99780.83
2022-08-27T13:36:05.322Z,99780.56
2022-08-27T13:37:28.965Z,99779.73
2022-08-27T13:38:34.722Z,99781.61
2022-08-27T13:39:39.473Z,99784.05
2022-08-27T13:41:14.525Z,99785.26
2022-08-27T13:42:22.374Z,99778.08
2022-08-27T13:43:38.692Z,99777.77
2022-08-27T13:44:44.495Z,99777.44
2022-08-27T13:45:55.031Z,99775.09
2022-08-27T13:47:09.303Z,99773.14
2022-08-27T13:48:18.899Z,99775.73
2022-08-27T13:49:24.700Z,99776.05
2022-08-27T13:50:34.937Z,99782.98
2022-08-27T13:51:39.902Z,99776.96
2022-08-27T13:53:04.249Z,99775.81
2022-08-27T13:54:15.237Z,99772.89
2022-08-27T13:55:21.812Z,99772.45
2022-08-27T13:56:29.635Z,99764.63
2022-08-27T13:57:48.853Z,99778.13
2022-08-27T13:58:52.833Z,99786.52
2022-08-27T13:59:57.450Z,99786.70
2022-08-27T14:01:15.825Z,99783.95
2022-08-27T14:02:26.485Z,99784.62
2022-08-27T14:03:36.312Z,99791.71
2022-08-27T14:04:52.902Z,99790.41
2022-08-27T14:05:58.933Z,99790.72
2022-08-27T14:08:33.113Z,99788.17
2022-08-27T14:09:40.705Z,99792.95
2022-08-27T14:10:49.350Z,99797.42
2022-08-27T14:12:08.110Z,99793.96
2022-08-27T14:13:17.933Z,99793.20
2022-08-27T14:14:22.122Z,99790.31
2022-08-27T14:15:41.036Z,99795.05
2022-08-27T14:16:44.894Z,99793.24
2022-08-27T14:17:51.636Z,99793.84
2022-08-27T14:19:16.730Z,99785.89
2022-08-27T14:20:21.814Z,99786.44
2022-08-27T14:21:28.215Z,99793.16
2022-08-27T14:22:33.871Z,99789.18
2022-08-27T14:23:38.230Z,99790.56
2022-08-27T14:24:41.526Z,99787.96
2022-08-27T14:25:46.209Z,99787.20
2022-08-27T14:26:52.860Z,99788.83
2022-08-27T14:27:57.170Z,99787.81
2022-08-27T14:29:01.558Z,99784.52